アティラウ の空港の天気 - METARとTAF

Atyrau Airport ( UATG / GUW ) - カザフスタン Atyrau
飛行場実況気象(Metar)
観測時間09/23 03:30 ORAT (09/22 22:30 UTC)
風向・風速東 10m/s
視程9000m
天気現象
全天の4割程度の雲 雲底高度 1010m
気温17℃
湿度24%
気圧1010hPa
METARUATG 222230Z 10010MPS 9000 SCT033CB 17/M04 Q1010 R14/CLRD70 NOSIG RMK QFE760/1013
過去の天気等 Google飛行場航空写真 Wunderground天気予報

過去48時間のMETAR

飛行場予報(TAF)
発表時間: 9/22 22:00 ORAT (9/22 17:00 UTC)
予報対象時間: 22日23時 ORAT ~ 23日23時 ORAT
風向・風速東 11m/s
視程6000m
全天の4割程度の積乱雲 雲底高度 1010m
23日9時 ORAT ~ 23日11時 ORAT に徐々に
風向・風速東南東 11m/s 瞬間風速 16m/s
23日9時 ORAT ~ 23日15時 ORAT に一時的に
視程3100m
天気現象高い風塵
23日15時 ORAT ~ 23日21時 ORAT に一時的に
視程3100m
天気現象弱いしゅう雨
全天の4割程度の雲 雲底高度 340m
全天の8割程度の積乱雲 雲底高度 610m
TAF UATG 221700Z 2218/2318 10011MPS 6000 SCT033CB TX20/2311Z TN14/2302Z
BECMG 2304/2306 12011G16MPS
TEMPO 2304/2310 3100 BLDU
TEMPO 2310/2316 3100 -SHRA SCT011 BKN020CB